createdAt,value
2023-01-01T00:01:47.858Z,0.70
2023-01-01T00:04:49.469Z,0.70
2023-01-01T00:07:51.071Z,0.55
2023-01-01T00:10:52.611Z,0.60
2023-01-01T00:13:54.154Z,0.40
2023-01-01T00:16:56.260Z,0.40
2023-01-01T00:19:57.972Z,0.50
2023-01-01T00:22:59.564Z,0.70
2023-01-01T00:26:01.547Z,0.38
2023-01-01T00:29:04.042Z,0.50
2023-01-01T00:32:08.999Z,0.40
2023-01-01T00:35:13.090Z,0.40
2023-01-01T00:38:14.726Z,0.50
2023-01-01T00:41:18.129Z,0.45
2023-01-01T00:44:19.702Z,0.60
2023-01-01T00:47:21.296Z,0.45
2023-01-01T00:50:23.350Z,0.50
2023-01-01T00:53:24.882Z,0.40
2023-01-01T00:56:26.493Z,0.40
2023-01-01T00:59:29.069Z,0.40
2023-01-01T01:02:31.090Z,0.40
2023-01-01T01:05:33.700Z,0.40
2023-01-01T01:08:37.396Z,0.30
2023-01-01T01:11:39.500Z,0.20
2023-01-01T01:14:41.059Z,0.30
2023-01-01T01:17:42.591Z,0.30
2023-01-01T01:20:50.862Z,0.50
2023-01-01T01:23:54.253Z,0.35
2023-01-01T01:26:55.830Z,0.30
2023-01-01T01:29:57.385Z,0.32
2023-01-01T01:32:58.940Z,0.30
2023-01-01T01:36:00.719Z,0.47
2023-01-01T01:39:02.385Z,0.43
2023-01-01T01:42:04.727Z,0.80
2023-01-01T01:45:07.088Z,0.50
2023-01-01T01:48:09.638Z,0.50
2023-01-01T01:51:14.573Z,0.40
2023-01-01T01:54:22.563Z,0.60
2023-01-01T01:57:24.577Z,0.32
2023-01-01T02:00:26.229Z,0.40
2023-01-01T02:03:51.796Z,0.50
2023-01-01T02:06:54.377Z,0.70
2023-01-01T02:09:56.522Z,0.70
2023-01-01T02:12:58.358Z,1.08
2023-01-01T02:16:08.066Z,0.50
2023-01-01T02:19:38.638Z,1.25
2023-01-01T02:23:26.281Z,1.10
2023-01-01T02:26:49.633Z,0.70
2023-01-01T02:29:56.848Z,0.90
2023-01-01T02:33:04.056Z,0.60
2023-01-01T02:36:07.384Z,0.63
2023-01-01T02:39:10.831Z,0.68
2023-01-01T02:42:13.366Z,0.70
2023-01-01T02:45:14.932Z,0.70
2023-01-01T02:48:35.041Z,0.60
2023-01-01T02:51:39.385Z,1.27
2023-01-01T02:55:07.906Z,1.00
2023-01-01T02:58:36.963Z,1.00
2023-01-01T03:02:02.978Z,0.80
2023-01-01T03:05:31.230Z,0.70
2023-01-01T03:08:45.089Z,0.70
2023-01-01T03:12:10.888Z,0.75
2023-01-01T03:15:28.136Z,0.60
2023-01-01T03:18:38.218Z,0.90
2023-01-01T03:22:05.685Z,0.60
2023-01-01T03:25:12.167Z,0.60
2023-01-01T03:28:24.190Z,0.40
2023-01-01T03:31:26.857Z,0.57
2023-01-01T03:34:35.448Z,0.50
2023-01-01T03:37:37.470Z,0.40
2023-01-01T03:40:39.882Z,1.00
2023-01-01T03:43:52.967Z,0.60
2023-01-01T03:46:54.904Z,0.68
2023-01-01T03:49:58.121Z,0.60
2023-01-01T03:53:17.941Z,0.60
2023-01-01T03:56:46.019Z,0.50
2023-01-01T03:59:57.264Z,0.30
2023-01-01T04:03:09.777Z,0.30
2023-01-01T04:06:11.914Z,0.80
2023-01-01T04:09:18.208Z,0.70
2023-01-01T04:12:20.885Z,0.40
2023-01-01T04:15:27.616Z,0.40
2023-01-01T04:18:29.140Z,0.40
2023-01-01T04:21:30.693Z,0.60
2023-01-01T04:24:32.256Z,0.30
2023-01-01T04:27:33.811Z,0.77
2023-01-01T04:33:38.965Z,0.77
2023-01-01T04:36:40.619Z,0.40
2023-01-01T04:39:42.161Z,0.40
2023-01-01T04:42:43.706Z,0.40
2023-01-01T04:45:55.890Z,0.40
2023-01-01T04:48:57.568Z,0.40
2023-01-01T04:51:59.179Z,0.38
2023-01-01T04:55:00.926Z,0.40
2023-01-01T04:58:02.485Z,0.30
2023-01-01T05:01:05.195Z,0.20
2023-01-01T05:04:06.960Z,0.28
2023-01-01T05:07:08.526Z,0.30
2023-01-01T05:10:10.045Z,0.22
2023-01-01T05:13:11.600Z,0.30
2023-01-01T05:16:15.860Z,0.20
2023-01-01T05:19:17.470Z,0.20
2023-01-01T05:22:18.993Z,0.30
2023-01-01T05:25:20.536Z,0.20
2023-01-01T05:28:23.409Z,0.22
2023-01-01T05:31:31.566Z,0.20
2023-01-01T05:37:33.567Z,0.40
2023-01-01T05:40:35.230Z,0.25
2023-01-01T05:43:37.138Z,0.30
2023-01-01T05:46:38.952Z,0.30
2023-01-01T05:49:40.565Z,0.20
2023-01-01T05:52:42.109Z,0.30
2023-01-01T05:55:43.631Z,0.20
2023-01-01T05:58:46.613Z,0.30
2023-01-01T06:01:48.208Z,0.20
2023-01-01T06:04:49.913Z,0.15
2023-01-01T06:07:51.507Z,0.10
2023-01-01T06:11:08.353Z,0.20
2023-01-01T06:14:10.082Z,0.20
2023-01-01T06:17:11.611Z,0.20
2023-01-01T06:20:13.330Z,0.20
2023-01-01T06:23:14.935Z,0.10
2023-01-01T06:26:18.010Z,0.10
2023-01-01T06:29:19.551Z,0.20
2023-01-01T06:32:21.128Z,0.32
2023-01-01T06:35:22.744Z,0.10
2023-01-01T06:38:24.671Z,0.20
2023-01-01T06:41:27.956Z,0.20
2023-01-01T06:44:29.497Z,0.20
2023-01-01T06:47:34.305Z,0.17
2023-01-01T06:50:39.818Z,0.10
2023-01-01T06:53:41.671Z,0.20
2023-01-01T06:56:43.229Z,0.20
2023-01-01T06:59:44.744Z,0.20
2023-01-01T07:02:48.707Z,0.10
2023-01-01T07:05:50.313Z,0.20
2023-01-01T07:08:52.712Z,0.10
2023-01-01T07:11:54.308Z,0.10
2023-01-01T07:14:55.908Z,0.13
2023-01-01T07:17:57.455Z,0.15
2023-01-01T07:21:01.563Z,0.20
2023-01-01T07:24:05.766Z,0.10
2023-01-01T07:27:07.545Z,0.10
2023-01-01T07:30:10.507Z,0.20
2023-01-01T07:33:13.921Z,0.20
2023-01-01T07:36:15.492Z,0.28
2023-01-01T07:39:17.054Z,0.10
2023-01-01T07:42:18.933Z,0.20
2023-01-01T07:45:20.502Z,0.30
2023-01-01T07:48:22.033Z,0.20
2023-01-01T07:51:25.120Z,0.10
2023-01-01T07:54:26.626Z,0.10
2023-01-01T07:57:28.180Z,0.10
2023-01-01T08:00:29.934Z,0.20
2023-01-01T08:03:31.586Z,0.20
2023-01-01T08:06:33.240Z,0.10
2023-01-01T08:09:34.776Z,0.10
2023-01-01T08:12:36.403Z,0.15
2023-01-01T08:15:38.097Z,0.10
2023-01-01T08:18:39.680Z,0.10
2023-01-01T08:21:41.794Z,0.15
2023-01-01T08:24:43.438Z,0.20
2023-01-01T08:27:45.059Z,0.20
2023-01-01T08:30:46.612Z,0.20
2023-01-01T08:33:48.172Z,0.20
2023-01-01T08:36:49.793Z,0.20
2023-01-01T08:39:52.364Z,0.10
2023-01-01T08:42:54.016Z,0.10
2023-01-01T08:45:55.563Z,0.10
2023-01-01T08:48:57.113Z,0.20
2023-01-01T08:51:58.665Z,0.10
2023-01-01T08:55:01.048Z,0.10
2023-01-01T08:58:06.542Z,0.10
2023-01-01T09:01:09.426Z,0.20
2023-01-01T09:04:15.730Z,0.20
2023-01-01T09:07:17.541Z,0.20
2023-01-01T09:10:19.131Z,0.10
2023-01-01T09:13:22.073Z,0.10
2023-01-01T09:16:23.787Z,0.10
2023-01-01T09:19:25.526Z,0.10
2023-01-01T09:22:27.097Z,0.13
2023-01-01T09:25:28.753Z,0.10
2023-01-01T09:28:30.868Z,0.10
2023-01-01T09:31:32.569Z,0.10
2023-01-01T09:34:34.251Z,0.10
2023-01-01T09:37:35.777Z,0.10
2023-01-01T09:40:51.076Z,0.10
2023-01-01T09:44:14.128Z,0.10
2023-01-01T09:47:28.469Z,0.20
2023-01-01T09:50:39.526Z,0.20
2023-01-01T09:53:48.809Z,0.10
2023-01-01T09:56:55.031Z,0.10
2023-01-01T10:00:00.551Z,0.13
2023-01-01T10:03:24.950Z,0.10
2023-01-01T10:06:33.895Z,0.10
2023-01-01T10:09:53.939Z,0.10
2023-01-01T10:13:10.415Z,0.20
2023-01-01T10:16:20.593Z,0.10
2023-01-01T10:19:41.585Z,0.10
2023-01-01T10:22:47.148Z,0.10
2023-01-01T10:25:49.022Z,0.10
2023-01-01T10:28:56.498Z,0.10
2023-01-01T10:32:05.374Z,0.10
2023-01-01T10:35:16.432Z,0.17
2023-01-01T10:38:24.410Z,0.10
2023-01-01T10:41:26.024Z,0.15
2023-01-01T10:44:35.287Z,0.10
2023-01-01T10:47:36.888Z,0.20
2023-01-01T10:51:13.655Z,0.10
2023-01-01T10:54:37.107Z,0.10
2023-01-01T10:57:40.446Z,0.10
2023-01-01T11:00:42.150Z,0.10
2023-01-01T11:04:00.651Z,0.10
2023-01-01T11:07:06.858Z,0.15
2023-01-01T11:10:20.467Z,0.10
2023-01-01T11:13:22.232Z,0.10
2023-01-01T11:16:25.082Z,0.10
2023-01-01T11:19:34.205Z,0.10
2023-01-01T11:22:53.513Z,0.10
2023-01-01T11:26:00.662Z,0.10
2023-01-01T11:29:17.406Z,0.10
2023-01-01T11:32:36.304Z,0.10
2023-01-01T11:35:54.008Z,0.17
2023-01-01T11:39:07.488Z,0.10
2023-01-01T11:42:09.045Z,0.10
2023-01-01T11:45:27.182Z,0.20
2023-01-01T11:48:33.582Z,0.20
2023-01-01T11:51:35.268Z,0.10
2023-01-01T11:54:38.134Z,0.10
2023-01-01T11:57:44.509Z,0.10
2023-01-01T12:00:49.708Z,0.10
2023-01-01T12:04:02.105Z,0.15
2023-01-01T12:07:08.382Z,0.13
2023-01-01T12:10:22.147Z,0.20
2023-01-01T12:13:30.377Z,0.10
2023-01-01T12:16:58.029Z,0.30
2023-01-01T12:20:25.744Z,0.10
2023-01-01T12:23:27.770Z,0.10
2023-01-01T12:26:47.981Z,0.10
2023-01-01T12:29:59.217Z,0.10
2023-01-01T12:33:25.073Z,0.10
2023-01-01T12:36:38.654Z,0.10
2023-01-01T12:39:42.865Z,0.20
2023-01-01T12:43:06.479Z,0.30
2023-01-01T12:46:47.272Z,0.20
2023-01-01T12:49:51.753Z,0.10
2023-01-01T12:53:17.687Z,0.10
2023-01-01T12:56:23.379Z,0.10
2023-01-01T12:59:32.024Z,0.20
2023-01-01T13:02:37.082Z,0.17
2023-01-01T13:05:43.167Z,0.10
2023-01-01T13:08:50.519Z,0.20
2023-01-01T13:12:17.091Z,0.22
2023-01-01T13:15:37.572Z,0.25
2023-01-01T13:18:39.534Z,0.20
2023-01-01T13:21:41.050Z,0.20
2023-01-01T13:24:42.626Z,0.10
2023-01-01T13:27:56.536Z,0.20
2023-01-01T13:30:58.221Z,0.10
2023-01-01T13:34:30.729Z,0.10
2023-01-01T13:37:42.801Z,0.10
2023-01-01T13:40:51.443Z,0.10
2023-01-01T13:44:10.496Z,0.10
2023-01-01T13:47:52.509Z,0.10
2023-01-01T13:51:33.592Z,0.10
2023-01-01T13:54:57.150Z,0.10
2023-01-01T13:58:20.412Z,0.20
2023-01-01T14:01:47.041Z,0.10
2023-01-01T14:05:02.293Z,0.10
2023-01-01T14:08:08.515Z,0.10
2023-01-01T14:11:20.055Z,0.10
2023-01-01T14:14:24.556Z,0.10
2023-01-01T14:17:26.251Z,0.10
2023-01-01T14:20:36.245Z,0.10
2023-01-01T14:23:44.100Z,0.10
2023-01-01T14:26:46.050Z,0.10
2023-01-01T14:29:50.726Z,0.10
2023-01-01T14:32:57.230Z,0.40
2023-01-01T14:36:01.526Z,0.10
2023-01-01T14:39:03.198Z,0.17
2023-01-01T14:42:14.790Z,0.10
2023-01-01T14:45:18.580Z,0.10
2023-01-01T14:48:20.779Z,0.20
2023-01-01T14:51:25.751Z,0.10
2023-01-01T14:54:32.871Z,0.57
2023-01-01T14:57:36.344Z,0.10
2023-01-01T15:00:37.907Z,0.17
2023-01-01T15:03:39.460Z,0.20
2023-01-01T15:06:41.835Z,0.20
2023-01-01T15:09:43.423Z,0.20
2023-01-01T15:12:44.999Z,0.20
2023-01-01T15:15:50.153Z,0.13
2023-01-01T15:18:53.497Z,0.13
2023-01-01T15:21:55.708Z,0.10
2023-01-01T15:24:59.351Z,0.10
2023-01-01T15:28:00.912Z,0.10
2023-01-01T15:31:02.525Z,0.20
2023-01-01T15:34:05.121Z,0.13
2023-01-01T15:37:19.737Z,0.10
2023-01-01T15:40:21.235Z,0.17
2023-01-01T15:43:29.810Z,0.20
2023-01-01T15:46:32.881Z,0.20
2023-01-01T15:49:34.645Z,0.10
2023-01-01T15:52:37.447Z,0.20
2023-01-01T15:55:44.599Z,0.10
2023-01-01T15:59:09.397Z,0.20
2023-01-01T16:02:22.257Z,0.20
2023-01-01T16:05:25.673Z,0.10
2023-01-01T16:08:27.444Z,0.15
2023-01-01T16:11:29.052Z,0.20
2023-01-01T16:14:30.671Z,0.10
2023-01-01T16:17:33.917Z,0.10
2023-01-01T16:20:35.472Z,0.17
2023-01-01T16:23:37.049Z,0.10
2023-01-01T16:26:38.629Z,0.20
2023-01-01T16:29:43.419Z,0.10
2023-01-01T16:32:45.837Z,0.10
2023-01-01T16:35:47.406Z,0.20
2023-01-01T16:38:49.010Z,0.10
2023-01-01T16:41:50.648Z,0.10
2023-01-01T16:44:52.254Z,0.55
2023-01-01T16:47:55.251Z,0.17
2023-01-01T16:50:56.805Z,0.20
2023-01-01T16:54:00.812Z,0.20
2023-01-01T16:57:02.618Z,0.13
2023-01-01T17:00:04.457Z,0.28
2023-01-01T17:03:06.130Z,0.20
2023-01-01T17:06:09.541Z,0.10
2023-01-01T17:09:11.068Z,0.10
2023-01-01T17:12:13.107Z,0.20
2023-01-01T17:15:14.797Z,0.10
2023-01-01T17:18:16.413Z,0.20
2023-01-01T17:21:19.379Z,0.20
2023-01-01T17:24:21.454Z,0.10
2023-01-01T17:27:23.027Z,0.10
2023-01-01T17:30:24.613Z,0.20
2023-01-01T17:33:26.254Z,0.15
2023-01-01T17:36:28.131Z,0.20
2023-01-01T17:39:29.734Z,0.10
2023-01-01T17:42:31.566Z,0.20
2023-01-01T17:45:36.690Z,0.13
2023-01-01T17:48:38.893Z,0.15
2023-01-01T17:51:40.648Z,0.20
2023-01-01T17:54:42.182Z,0.17
2023-01-01T17:57:43.702Z,0.10
2023-01-01T18:00:45.289Z,0.10
2023-01-01T18:03:47.898Z,0.20
2023-01-01T18:06:54.341Z,0.20
2023-01-01T18:09:56.221Z,0.20
2023-01-01T18:12:58.244Z,0.10
2023-01-01T18:16:09.493Z,0.10
2023-01-01T18:19:11.374Z,0.20
2023-01-01T18:22:13.168Z,0.20
2023-01-01T18:25:14.846Z,0.10
2023-01-01T18:28:16.347Z,0.20
2023-01-01T18:31:18.099Z,0.10
2023-01-01T18:34:19.673Z,0.17
2023-01-01T18:37:22.163Z,0.10
2023-01-01T18:40:24.111Z,0.10
2023-01-01T18:43:25.653Z,0.20
2023-01-01T18:46:29.460Z,0.20
2023-01-01T18:49:31.607Z,0.20
2023-01-01T18:52:33.855Z,0.20
2023-01-01T18:55:35.578Z,0.22
2023-01-01T18:58:37.180Z,0.10
2023-01-01T19:01:38.875Z,0.20
2023-01-01T19:04:40.550Z,0.10
2023-01-01T19:07:43.907Z,0.20
2023-01-01T19:10:48.411Z,0.30
2023-01-01T19:13:59.596Z,0.20
2023-01-01T19:17:12.531Z,0.20
2023-01-01T19:20:17.391Z,0.20
2023-01-01T19:23:27.829Z,0.10
2023-01-01T19:26:33.259Z,0.15
2023-01-01T19:29:46.323Z,0.20
2023-01-01T19:32:49.012Z,0.10
2023-01-01T19:35:50.589Z,0.10
2023-01-01T19:38:52.137Z,0.15
2023-01-01T19:41:53.715Z,0.20
2023-01-01T19:44:55.233Z,0.20
2023-01-01T19:47:56.765Z,0.20
2023-01-01T19:50:58.591Z,0.20
2023-01-01T19:54:00.393Z,0.20
2023-01-01T19:57:01.994Z,0.20
2023-01-01T20:00:04.235Z,0.20
2023-01-01T20:03:34.540Z,0.10
2023-01-01T20:06:27.813Z,0.20
2023-01-01T20:09:29.337Z,0.20
2023-01-01T20:12:30.891Z,0.13
2023-01-01T20:15:32.509Z,0.20
2023-01-01T20:18:34.175Z,0.20
2023-01-01T20:21:54.402Z,0.13
2023-01-01T20:24:56.504Z,0.20
2023-01-01T20:28:16.372Z,0.20
2023-01-01T20:31:17.943Z,0.20
2023-01-01T20:34:19.951Z,0.10
2023-01-01T20:37:36.856Z,0.20
2023-01-01T20:40:38.389Z,0.20
2023-01-01T20:43:39.917Z,0.20
2023-01-01T20:46:42.403Z,0.20
2023-01-01T20:49:44.005Z,0.10
2023-01-01T20:52:45.550Z,0.20
2023-01-01T20:55:47.091Z,0.20
2023-01-01T20:58:53.311Z,0.20
2023-01-01T21:01:59.927Z,0.15
2023-01-01T21:05:01.760Z,0.20
2023-01-01T21:08:03.346Z,0.20
2023-01-01T21:11:05.121Z,0.20
2023-01-01T21:14:06.655Z,0.30
2023-01-01T21:17:21.510Z,0.20
2023-01-01T21:20:25.534Z,0.20
2023-01-01T21:23:29.277Z,0.20
2023-01-01T21:26:36.773Z,0.20
2023-01-01T21:29:44.123Z,0.10
2023-01-01T21:32:48.238Z,0.20
2023-01-01T21:35:49.773Z,0.30
2023-01-01T21:38:52.065Z,0.20
2023-01-01T21:41:54.583Z,0.20
2023-01-01T21:44:57.801Z,0.20
2023-01-01T21:48:15.042Z,0.15
2023-01-01T21:51:22.001Z,0.20
2023-01-01T21:54:32.789Z,0.10
2023-01-01T21:57:37.648Z,0.20
2023-01-01T22:00:39.191Z,0.10
2023-01-01T22:03:40.748Z,0.20
2023-01-01T22:06:48.574Z,0.10
2023-01-01T22:09:51.386Z,0.20
2023-01-01T22:12:57.831Z,0.20
2023-01-01T22:15:59.347Z,0.13
2023-01-01T22:19:00.975Z,0.10
2023-01-01T22:22:10.197Z,0.20
2023-01-01T22:25:26.774Z,0.28
2023-01-01T22:28:36.565Z,0.10
2023-01-01T22:31:45.376Z,0.13
2023-01-01T22:34:51.963Z,0.10
2023-01-01T22:37:56.168Z,0.17
2023-01-01T22:40:57.821Z,0.20
2023-01-01T22:44:02.779Z,0.13
2023-01-01T22:47:05.714Z,0.20
2023-01-01T22:50:09.090Z,0.10
2023-01-01T22:53:10.700Z,0.20
2023-01-01T22:56:12.604Z,0.20
2023-01-01T22:59:14.158Z,0.15
2023-01-01T23:02:15.785Z,0.10
2023-01-01T23:05:17.442Z,0.10
2023-01-01T23:08:19.738Z,0.20
2023-01-01T23:11:22.360Z,0.20
2023-01-01T23:14:43.298Z,0.20
2023-01-01T23:17:44.920Z,0.30
2023-01-01T23:20:46.489Z,0.20
2023-01-01T23:23:52.701Z,0.22
2023-01-01T23:26:54.441Z,0.20
2023-01-01T23:29:56.322Z,0.10
2023-01-01T23:32:58.064Z,0.22
2023-01-01T23:36:01.993Z,0.10
2023-01-01T23:39:03.786Z,0.25
2023-01-01T23:42:05.381Z,0.20
2023-01-01T23:45:07.279Z,0.25
2023-01-01T23:48:09.031Z,0.10
2023-01-01T23:51:12.269Z,0.20
2023-01-01T23:54:13.821Z,0.20
2023-01-01T23:57:15.379Z,0.10
